createdAt,value
2023-04-07T00:00:00.267Z,2.37
2023-04-07T00:03:07.305Z,2.37
2023-04-07T00:06:14.420Z,2.73
2023-04-07T00:09:19.656Z,2.90
2023-04-07T00:12:24.688Z,2.60
2023-04-07T00:15:31.082Z,2.73
2023-04-07T00:18:36.235Z,2.60
2023-04-07T00:21:41.630Z,2.80
2023-04-07T00:24:46.953Z,2.87
2023-04-07T00:27:51.959Z,2.83
2023-04-07T00:30:58.460Z,2.60
2023-04-07T00:34:03.671Z,3.07
2023-04-07T00:37:08.707Z,3.07
2023-04-07T00:40:14.454Z,2.93
2023-04-07T00:43:19.837Z,3.03
2023-04-07T00:46:26.617Z,2.67
2023-04-07T00:49:31.691Z,2.80
2023-04-07T00:52:36.827Z,3.03
2023-04-07T00:55:42.080Z,2.63
2023-04-07T00:58:47.380Z,2.77
2023-04-07T01:02:00.377Z,3.30
2023-04-07T01:05:11.801Z,2.77
2023-04-07T01:08:22.354Z,3.10
2023-04-07T01:11:32.585Z,3.20
2023-04-07T01:14:46.443Z,3.40
2023-04-07T01:18:22.395Z,3.17
2023-04-07T01:21:29.951Z,3.90
2023-04-07T01:24:52.253Z,3.13
2023-04-07T01:28:17.233Z,3.93
2023-04-07T01:31:25.648Z,4.50
2023-04-07T01:34:33.269Z,4.20
2023-04-07T01:37:39.431Z,4.17
2023-04-07T01:40:45.651Z,4.30
2023-04-07T01:46:57.892Z,4.53
2023-04-07T01:50:05.837Z,4.47
2023-04-07T01:53:13.268Z,4.33
2023-04-07T01:56:18.413Z,4.50
2023-04-07T01:59:28.009Z,4.40
2023-04-07T02:02:38.351Z,4.50
2023-04-07T02:05:43.984Z,4.47
2023-04-07T02:08:52.028Z,5.00
2023-04-07T02:11:58.087Z,4.17
2023-04-07T02:15:06.335Z,4.83
2023-04-07T02:18:18.674Z,4.63
2023-04-07T02:21:24.363Z,5.00
2023-04-07T02:24:29.433Z,5.30
2023-04-07T02:27:34.940Z,5.13
2023-04-07T02:30:39.963Z,5.10
2023-04-07T02:33:46.517Z,4.67
2023-04-07T02:36:51.669Z,5.23
2023-04-07T02:39:56.806Z,5.30
2023-04-07T02:43:01.875Z,5.00
2023-04-07T02:46:07.027Z,5.20
2023-04-07T02:49:13.595Z,5.53
2023-04-07T02:52:18.646Z,4.93
2023-04-07T02:55:23.767Z,5.40
2023-04-07T02:58:29.102Z,5.47
2023-04-07T03:01:35.098Z,5.33
2023-04-07T03:04:42.098Z,5.83
2023-04-07T03:07:56.064Z,5.03
2023-04-07T03:11:01.326Z,5.57
2023-04-07T03:14:08.507Z,4.83
2023-04-07T03:17:20.228Z,4.47
2023-04-07T03:20:27.231Z,5.10
2023-04-07T03:23:32.312Z,5.47
2023-04-07T03:26:38.440Z,4.83
2023-04-07T03:29:51.880Z,4.63
2023-04-07T03:32:57.550Z,5.30
2023-04-07T03:36:04.937Z,5.60
2023-04-07T03:39:10.490Z,5.77
2023-04-07T03:42:15.540Z,4.80
2023-04-07T03:45:22.174Z,5.73
2023-04-07T03:48:30.110Z,5.50
2023-04-07T03:51:47.961Z,5.43
2023-04-07T03:54:55.717Z,5.63
2023-04-07T03:58:06.953Z,6.17
2023-04-07T04:01:14.491Z,5.60
2023-04-07T04:04:21.965Z,5.47
2023-04-07T04:07:28.980Z,6.10
2023-04-07T04:10:40.744Z,5.90
2023-04-07T04:13:45.844Z,5.23
2023-04-07T04:16:51.046Z,5.63
2023-04-07T04:20:19.098Z,5.30
2023-04-07T04:23:28.744Z,5.93
2023-04-07T04:26:35.825Z,5.87
2023-04-07T04:29:48.902Z,6.07
2023-04-07T04:32:57.238Z,5.67
2023-04-07T04:36:26.325Z,5.60
2023-04-07T04:39:37.910Z,5.63
2023-04-07T04:42:43.831Z,5.33
2023-04-07T04:45:51.060Z,5.50
2023-04-07T04:48:59.803Z,5.43
2023-04-07T04:52:05.098Z,5.83
2023-04-07T04:55:18.355Z,6.00
2023-04-07T04:58:24.528Z,5.97
2023-04-07T05:01:33.561Z,6.00
2023-04-07T05:04:47.120Z,5.27
2023-04-07T05:08:02.528Z,5.47
2023-04-07T05:11:14.440Z,5.93
2023-04-07T05:14:21.931Z,5.53
2023-04-07T05:17:33.054Z,5.67
2023-04-07T05:20:39.853Z,5.23
2023-04-07T05:23:46.665Z,5.40
2023-04-07T05:26:53.574Z,4.97
2023-04-07T05:29:59.103Z,4.77
2023-04-07T05:33:09.041Z,5.20
2023-04-07T05:36:27.801Z,5.13
2023-04-07T05:39:35.196Z,5.13
2023-04-07T05:42:44.482Z,5.60
2023-04-07T05:45:49.978Z,4.40
2023-04-07T05:48:55.847Z,5.03
2023-04-07T05:52:03.528Z,5.63
2023-04-07T05:55:09.954Z,5.67
2023-04-07T05:58:17.653Z,4.77
2023-04-07T06:01:28.101Z,6.03
2023-04-07T06:04:35.407Z,6.10
2023-04-07T06:07:42.809Z,5.97
2023-04-07T06:10:49.080Z,5.43
2023-04-07T06:13:55.680Z,5.77
2023-04-07T06:17:00.849Z,6.33
2023-04-07T06:20:07.022Z,5.93
2023-04-07T06:23:12.154Z,5.67
2023-04-07T06:26:17.677Z,7.33
2023-04-07T06:29:26.460Z,6.17
2023-04-07T06:32:33.524Z,6.43
2023-04-07T06:35:38.723Z,6.20
2023-04-07T06:38:45.209Z,6.07
2023-04-07T06:41:50.291Z,6.07
2023-04-07T06:44:57.247Z,6.37
2023-04-07T06:48:02.463Z,5.70
2023-04-07T06:51:07.706Z,6.03
2023-04-07T06:54:14.095Z,5.87
2023-04-07T06:57:19.105Z,5.13
2023-04-07T07:00:29.087Z,5.70
2023-04-07T07:03:34.556Z,5.13
2023-04-07T07:06:39.594Z,4.80
2023-04-07T07:09:44.768Z,5.03
2023-04-07T07:12:49.944Z,4.70
2023-04-07T07:15:56.762Z,4.63
2023-04-07T07:19:01.863Z,3.97
2023-04-07T07:22:06.950Z,4.43
2023-04-07T07:25:13.019Z,4.20
2023-04-07T07:28:18.579Z,3.27
2023-04-07T07:31:25.117Z,3.60
2023-04-07T07:34:30.182Z,4.10
2023-04-07T07:37:35.812Z,3.50
2023-04-07T07:40:40.948Z,3.60
2023-04-07T07:43:48.311Z,3.10
2023-04-07T07:46:55.075Z,2.70
2023-04-07T07:50:00.711Z,2.93
2023-04-07T07:53:05.981Z,2.57
2023-04-07T07:56:11.022Z,2.57
2023-04-07T07:59:17.766Z,2.73
2023-04-07T08:02:31.387Z,2.63
2023-04-07T08:05:36.547Z,2.37
2023-04-07T08:08:41.578Z,2.50
2023-04-07T08:11:48.389Z,2.83
2023-04-07T08:14:53.447Z,2.80
2023-04-07T08:18:00.292Z,3.10
2023-04-07T08:21:06.681Z,3.90
2023-04-07T08:24:12.669Z,3.80
2023-04-07T08:27:17.761Z,4.83
2023-04-07T08:30:23.185Z,2.80
2023-04-07T08:33:29.902Z,3.20
2023-04-07T08:36:34.935Z,3.33
2023-04-07T08:39:40.060Z,3.67
2023-04-07T08:42:50.377Z,2.90
2023-04-07T08:45:57.330Z,3.30
2023-04-07T08:49:04.164Z,3.60
2023-04-07T08:52:10.600Z,3.10
2023-04-07T08:55:15.685Z,3.73
2023-04-07T08:58:21.990Z,3.43
2023-04-07T09:01:27.789Z,2.20
2023-04-07T09:04:34.476Z,2.67
2023-04-07T09:07:43.486Z,2.47
2023-04-07T09:10:48.552Z,2.03
2023-04-07T09:13:53.689Z,2.00
2023-04-07T09:17:00.283Z,2.00
2023-04-07T09:20:07.465Z,1.80
2023-04-07T09:23:30.520Z,1.73
2023-04-07T09:26:35.456Z,2.10
2023-04-07T09:29:42.856Z,2.00
2023-04-07T09:32:48.589Z,1.97
2023-04-07T09:35:56.227Z,1.80
2023-04-07T09:39:10.770Z,1.80
2023-04-07T09:42:16.017Z,1.37
2023-04-07T09:45:34.484Z,1.60
2023-04-07T09:48:41.770Z,1.47
2023-04-07T09:51:57.292Z,1.30
2023-04-07T09:55:02.438Z,1.70
2023-04-07T09:58:07.821Z,1.70
2023-04-07T10:01:14.545Z,1.60
2023-04-07T10:04:19.759Z,1.63
2023-04-07T10:07:27.191Z,1.70
2023-04-07T10:10:32.413Z,1.80
2023-04-07T10:13:39.197Z,1.63
2023-04-07T10:16:44.521Z,1.73
2023-04-07T10:19:50.089Z,1.70
2023-04-07T10:22:57.767Z,1.87
2023-04-07T10:26:03.610Z,1.80
2023-04-07T10:29:11.711Z,1.87
2023-04-07T10:32:17.329Z,1.80
2023-04-07T10:35:23.227Z,2.00
2023-04-07T10:38:29.760Z,2.10
2023-04-07T10:41:36.609Z,2.00
2023-04-07T10:44:50.694Z,2.10
2023-04-07T10:48:12.471Z,1.83
2023-04-07T10:51:18.968Z,1.80
2023-04-07T10:54:29.197Z,1.97
2023-04-07T10:57:34.546Z,1.90
2023-04-07T11:00:39.588Z,1.83
2023-04-07T11:03:56.181Z,2.37
2023-04-07T11:07:01.277Z,1.97
2023-04-07T11:10:19.189Z,1.80
2023-04-07T11:13:24.682Z,1.60
2023-04-07T11:16:38.311Z,1.73
2023-04-07T11:19:53.303Z,1.97
2023-04-07T11:23:01.921Z,1.80
2023-04-07T11:26:08.850Z,1.70
2023-04-07T11:29:13.985Z,1.70
2023-04-07T11:32:26.207Z,1.83
2023-04-07T11:35:31.597Z,1.73
2023-04-07T11:38:38.651Z,2.10
2023-04-07T11:41:49.828Z,2.00
2023-04-07T11:44:54.810Z,2.93
2023-04-07T11:47:59.978Z,2.97
2023-04-07T11:51:06.266Z,1.93
2023-04-07T11:54:13.328Z,2.00
2023-04-07T11:57:28.078Z,1.80
2023-04-07T12:00:33.622Z,1.87
2023-04-07T12:03:39.239Z,1.83
2023-04-07T12:06:44.602Z,1.80
2023-04-07T12:09:49.659Z,1.73
2023-04-07T12:12:58.237Z,1.70
2023-04-07T12:16:05.029Z,1.83
2023-04-07T12:19:10.150Z,2.07
2023-04-07T12:22:15.268Z,2.30
2023-04-07T12:25:20.639Z,2.17
2023-04-07T12:28:27.742Z,1.87
2023-04-07T12:31:34.133Z,1.60
2023-04-07T12:34:40.009Z,1.80
2023-04-07T12:37:47.755Z,1.87
2023-04-07T12:40:54.820Z,2.23
2023-04-07T12:44:01.230Z,2.00
2023-04-07T12:47:06.486Z,1.90
2023-04-07T12:50:12.312Z,1.90
2023-04-07T12:53:17.424Z,1.80
2023-04-07T12:56:23.087Z,1.80
2023-04-07T12:59:30.709Z,1.70
2023-04-07T13:02:37.959Z,1.80
2023-04-07T13:05:43.148Z,1.93
2023-04-07T13:08:48.221Z,1.80
2023-04-07T13:11:53.252Z,1.80
2023-04-07T13:15:00.668Z,1.70
2023-04-07T13:18:06.229Z,1.80
2023-04-07T13:21:42.679Z,2.33
2023-04-07T13:24:37.815Z,3.50
2023-04-07T13:27:43.050Z,2.47
2023-04-07T13:30:49.576Z,2.00
2023-04-07T13:33:54.638Z,2.13
2023-04-07T13:36:59.671Z,2.10
2023-04-07T13:40:05.044Z,1.80
2023-04-07T13:43:11.687Z,1.87
2023-04-07T13:46:27.765Z,2.23
2023-04-07T13:49:33.331Z,2.10
2023-04-07T13:52:38.464Z,2.77
2023-04-07T13:55:43.474Z,2.20
2023-04-07T13:58:49.640Z,2.37
2023-04-07T14:01:56.362Z,2.13
2023-04-07T14:05:01.506Z,1.97
2023-04-07T14:08:06.662Z,2.03
2023-04-07T14:11:12.122Z,2.00
2023-04-07T14:14:17.185Z,1.93
2023-04-07T14:17:24.029Z,1.90
2023-04-07T14:20:36.709Z,1.83
2023-04-07T14:23:42.338Z,2.30
2023-04-07T14:26:48.136Z,3.57
2023-04-07T14:29:54.226Z,3.00
2023-04-07T14:33:01.446Z,2.00
2023-04-07T14:36:08.379Z,2.20
2023-04-07T14:39:14.760Z,2.33
2023-04-07T14:42:19.886Z,2.50
2023-04-07T14:45:24.912Z,2.40
2023-04-07T14:48:31.329Z,2.23
2023-04-07T14:51:38.436Z,2.40
2023-04-07T14:54:43.533Z,2.13
2023-04-07T14:57:48.589Z,2.67
2023-04-07T15:00:53.580Z,2.40
2023-04-07T15:04:01.036Z,2.10
2023-04-07T15:07:06.362Z,2.13
2023-04-07T15:10:12.737Z,2.23
2023-04-07T15:13:17.754Z,2.87
2023-04-07T15:16:22.814Z,2.33
2023-04-07T15:19:29.332Z,2.30
2023-04-07T15:22:34.500Z,2.17
2023-04-07T15:25:39.781Z,2.23
2023-04-07T15:28:44.893Z,2.17
2023-04-07T15:31:50.062Z,2.17
2023-04-07T15:34:56.481Z,2.90
2023-04-07T15:38:01.658Z,2.97
2023-04-07T15:41:06.868Z,2.20
2023-04-07T15:44:19.764Z,2.20
2023-04-07T15:47:25.085Z,2.33
2023-04-07T15:50:31.794Z,2.40
2023-04-07T15:53:37.034Z,2.07
2023-04-07T15:56:42.105Z,2.23
2023-04-07T15:59:47.347Z,2.10
2023-04-07T16:02:52.537Z,2.23
2023-04-07T16:05:59.033Z,2.50
2023-04-07T16:09:04.933Z,2.50
2023-04-07T16:12:14.380Z,2.10
2023-04-07T16:15:32.410Z,1.70
2023-04-07T16:18:41.660Z,1.97
2023-04-07T16:21:48.173Z,2.17
2023-04-07T16:24:53.438Z,2.20
2023-04-07T16:27:58.531Z,2.10
2023-04-07T16:31:06.036Z,2.20
2023-04-07T16:34:11.163Z,2.20
2023-04-07T16:37:17.574Z,2.23
2023-04-07T16:40:22.704Z,2.10
2023-04-07T16:43:28.116Z,2.30
2023-04-07T16:46:33.350Z,2.23
2023-04-07T16:49:41.358Z,2.30
2023-04-07T16:52:48.011Z,2.03
2023-04-07T16:55:56.227Z,2.43
2023-04-07T16:59:03.371Z,2.30
2023-04-07T17:02:11.366Z,2.50
2023-04-07T17:05:17.356Z,2.50
2023-04-07T17:08:25.801Z,2.80
2023-04-07T17:11:31.042Z,2.60
2023-04-07T17:14:36.505Z,2.90
2023-04-07T17:17:41.563Z,2.43
2023-04-07T17:20:46.970Z,2.30
2023-04-07T17:23:56.354Z,2.40
2023-04-07T17:27:04.776Z,2.97
2023-04-07T17:30:10.868Z,2.47
2023-04-07T17:33:16.359Z,2.23
2023-04-07T17:36:21.721Z,4.23
2023-04-07T17:39:28.189Z,4.57
2023-04-07T17:42:33.671Z,2.70
2023-04-07T17:45:38.767Z,2.40
2023-04-07T17:48:44.940Z,3.07
2023-04-07T17:51:50.061Z,2.83
2023-04-07T17:54:56.603Z,2.53
2023-04-07T17:58:03.922Z,2.30
2023-04-07T18:01:10.813Z,2.67
2023-04-07T18:04:17.053Z,2.73
2023-04-07T18:07:22.477Z,2.33
2023-04-07T18:10:29.170Z,2.57
2023-04-07T18:13:35.030Z,2.83
2023-04-07T18:16:40.513Z,2.40
2023-04-07T18:19:45.686Z,2.40
2023-04-07T18:22:52.942Z,2.50
2023-04-07T18:26:01.925Z,2.10
2023-04-07T18:29:10.089Z,3.20
2023-04-07T18:32:15.369Z,2.90
2023-04-07T18:35:21.924Z,2.43
2023-04-07T18:38:28.156Z,2.47
2023-04-07T18:41:35.026Z,2.67
2023-04-07T18:44:40.057Z,3.33
2023-04-07T18:47:45.242Z,2.67
2023-04-07T18:50:56.975Z,2.70
2023-04-07T18:54:02.366Z,2.90
2023-04-07T18:57:09.481Z,2.80
2023-04-07T19:00:14.728Z,2.60
2023-04-07T19:03:20.322Z,2.70
2023-04-07T19:06:28.305Z,2.90
2023-04-07T19:09:33.311Z,3.20
2023-04-07T19:12:40.146Z,3.40
2023-04-07T19:15:46.453Z,3.10
2023-04-07T19:18:53.282Z,2.80
2023-04-07T19:21:58.361Z,3.00
2023-04-07T19:25:03.108Z,2.80
2023-04-07T19:28:09.961Z,2.47
2023-04-07T19:31:15.040Z,2.70
2023-04-07T19:34:21.130Z,2.67
2023-04-07T19:37:26.404Z,2.80
2023-04-07T19:40:31.656Z,2.43
2023-04-07T19:43:41.376Z,2.60
2023-04-07T19:46:46.919Z,2.40
2023-04-07T19:49:52.025Z,2.50
2023-04-07T19:52:57.224Z,2.37
2023-04-07T19:56:04.944Z,2.37
2023-04-07T19:59:15.037Z,2.33
2023-04-07T20:02:22.165Z,2.30
2023-04-07T20:05:27.682Z,2.30
2023-04-07T20:08:33.063Z,2.70
2023-04-07T20:11:38.455Z,2.43
2023-04-07T20:14:45.123Z,2.60
2023-04-07T20:17:51.874Z,2.40
2023-04-07T20:21:00.970Z,2.40
2023-04-07T20:24:06.409Z,2.30
2023-04-07T20:27:14.667Z,2.50
2023-04-07T20:30:21.258Z,2.40
2023-04-07T20:33:26.587Z,2.50
2023-04-07T20:36:32.024Z,2.60
2023-04-07T20:39:37.140Z,2.60
2023-04-07T20:42:42.245Z,2.40
2023-04-07T20:45:48.766Z,2.00
2023-04-07T20:48:54.040Z,2.23
2023-04-07T20:51:59.192Z,2.37
2023-04-07T20:55:04.281Z,2.20
2023-04-07T20:58:10.573Z,2.17
2023-04-07T21:01:17.138Z,2.07
2023-04-07T21:04:24.472Z,2.30
2023-04-07T21:07:29.804Z,2.20
2023-04-07T21:10:34.973Z,2.47
2023-04-07T21:13:40.013Z,2.63
2023-04-07T21:16:46.429Z,2.80
2023-04-07T21:19:51.516Z,2.97
2023-04-07T21:22:56.516Z,3.17
2023-04-07T21:26:05.136Z,3.20
2023-04-07T21:29:11.285Z,3.47
2023-04-07T21:32:17.766Z,3.60
2023-04-07T21:35:23.478Z,3.77
2023-04-07T21:38:28.676Z,3.97
2023-04-07T21:41:33.773Z,3.97
2023-04-07T21:44:39.080Z,4.27
2023-04-07T21:47:45.485Z,4.37
2023-04-07T21:50:51.906Z,3.93
2023-04-07T21:53:56.911Z,5.40
2023-04-07T21:57:02.411Z,5.73
2023-04-07T22:00:08.722Z,6.07
2023-04-07T22:03:21.029Z,6.03
2023-04-07T22:06:26.799Z,5.50
2023-04-07T22:09:31.948Z,3.37
2023-04-07T22:12:37.671Z,3.30
2023-04-07T22:15:43.482Z,2.83
2023-04-07T22:18:50.439Z,2.33
2023-04-07T22:21:56.513Z,2.47
2023-04-07T22:25:01.874Z,2.40
2023-04-07T22:28:07.163Z,2.30
2023-04-07T22:31:12.281Z,2.33
2023-04-07T22:34:19.255Z,2.50
2023-04-07T22:37:24.747Z,2.47
2023-04-07T22:40:29.884Z,2.33
2023-04-07T22:43:35.007Z,2.43
2023-04-07T22:46:40.452Z,2.17
2023-04-07T22:49:46.615Z,2.30
2023-04-07T22:52:51.661Z,2.40
2023-04-07T22:55:57.129Z,2.43
2023-04-07T22:59:05.649Z,2.40
2023-04-07T23:02:11.051Z,2.60
2023-04-07T23:05:17.865Z,2.53
2023-04-07T23:08:22.994Z,2.70
2023-04-07T23:11:28.072Z,2.80
2023-04-07T23:14:33.335Z,2.60
2023-04-07T23:17:38.443Z,3.23
2023-04-07T23:20:52.244Z,3.23
2023-04-07T23:23:57.359Z,2.80
2023-04-07T23:27:02.774Z,3.20
2023-04-07T23:30:09.160Z,3.03
2023-04-07T23:33:15.200Z,3.60
2023-04-07T23:36:22.017Z,3.00
2023-04-07T23:39:27.912Z,3.67
2023-04-07T23:42:32.973Z,3.70
2023-04-07T23:45:38.207Z,3.30
2023-04-07T23:48:43.550Z,3.10
2023-04-07T23:51:49.977Z,3.00
2023-04-07T23:54:55.177Z,3.30
2023-04-07T23:58:00.149Z,3.60
